Aviation Digital Data Service (ADDS)

Output produced by METARs form (1238 UTC 22 March 2019)
found at http://www.aviationweather.gov/metar/data/
 
Forecast for: LATI (TIRANA , AL)
Text: TAF LATI 221100Z 2212/2312 34010KT CAVOK TX24/2312Z TN06/2305Z
Forecast period: 1200 to 1700 UTC 22 March 2019
Forecast type: FROM: standard forecast or significant change
Winds: from the NNW (340 degrees) at 12 MPH (10 knots; 5.1 m/s)
Visibility: 6 or more miles 10+ km)
Ceiling: unknown
Clouds: missing
Weather: no significant weather forecast for this period
Text: BECMG 2217/2220 VRB04KT
Forecast period: 1700 UTC 22 March 2019 to 1200 UTC 23 March 2019
Forecast type: BECOMING: Conditions expected to become as follows by 2000 UTC 22 March 2019
Winds: variable direction winds at 5 MPH (4 knots; 2.1 m/s)
Visibility: 6 or more miles 10+ km)
Ceiling: unknown
Clouds: missing
Weather: no significant weather forecast for this period